createdAt,value
2016-04-12T09:19:32.314Z,5
2016-04-12T09:42:07.955Z,100
2016-04-12T09:43:07.864Z,85
2016-04-12T09:44:07.850Z,80
2016-04-12T09:45:07.822Z,75
2016-04-12T09:46:07.653Z,105
2016-04-12T09:47:07.797Z,205
2016-04-12T09:48:07.767Z,185
2016-04-12T09:49:07.739Z,120
2016-04-12T09:50:07.742Z,95
2016-04-12T09:51:07.572Z,115
2016-04-12T09:52:07.746Z,120
2016-04-12T09:53:07.702Z,120
2016-04-12T09:54:07.675Z,120
2016-04-12T09:55:07.661Z,115
2016-04-12T09:56:07.649Z,135
2016-04-12T09:57:07.635Z,125
2016-04-12T09:58:07.607Z,130
2016-04-12T09:59:07.579Z,130
2016-04-12T10:00:07.582Z,135
2016-04-12T10:01:07.585Z,135
2016-04-12T10:02:07.540Z,135
2016-04-12T10:03:07.526Z,135
2016-04-12T10:04:07.514Z,140
2016-04-12T10:05:07.485Z,145
2016-04-12T10:06:07.487Z,145
2016-04-12T10:07:07.523Z,150
2016-04-12T10:08:07.446Z,155
2016-04-12T10:09:07.434Z,165
2016-04-12T10:10:07.483Z,175
2016-04-12T10:11:07.439Z,185
2016-04-12T10:12:07.411Z,190
2016-04-12T10:13:07.209Z,205
2016-04-12T10:14:07.416Z,225
2016-04-12T10:15:07.371Z,240
2016-04-12T10:16:07.328Z,275
2016-04-12T10:17:07.314Z,300
2016-04-12T10:18:07.302Z,350
2016-04-12T10:19:07.304Z,400
2016-04-12T10:20:07.260Z,430
2016-04-12T10:21:07.263Z,450
2016-04-12T10:22:07.234Z,465
2016-04-12T10:23:07.222Z,430
2016-04-12T10:24:07.208Z,485
2016-04-12T10:25:07.335Z,490
2016-04-12T10:26:07.182Z,345
2016-04-12T10:27:07.169Z,405
2016-04-12T10:28:07.157Z,510
2016-04-12T10:29:07.143Z,415
2016-04-12T10:30:07.146Z,455
2016-04-12T10:31:07.133Z,520
2016-04-12T10:32:07.167Z,440
2016-04-12T10:33:07.107Z,430
2016-04-12T10:34:07.157Z,440
2016-04-12T10:35:07.222Z,315
2016-04-12T10:36:08.210Z,420
2016-04-12T10:37:07.118Z,365
2016-04-12T10:38:07.137Z,460
2016-04-12T10:39:07.092Z,460
2016-04-12T10:40:07.111Z,495
2016-04-12T10:41:07.003Z,465
2016-04-12T10:42:06.975Z,420
2016-04-12T10:43:06.995Z,410
2016-04-12T10:44:06.997Z,420
2016-04-12T10:45:06.984Z,430
2016-04-12T10:46:06.939Z,425
2016-04-12T10:47:06.942Z,365
2016-04-12T10:48:06.929Z,320
2016-04-12T10:49:06.917Z,340
2016-04-12T10:50:06.888Z,300
2016-04-12T10:51:06.921Z,300
2016-04-12T10:52:06.909Z,250
2016-04-12T10:53:06.724Z,200
2016-04-12T10:54:06.852Z,175
2016-04-12T10:55:06.683Z,175
2016-04-12T10:56:06.841Z,165
2016-04-12T10:57:06.828Z,135
2016-04-12T10:58:06.830Z,140
2016-04-12T10:59:06.802Z,115
2016-04-12T11:00:06.805Z,120
2016-04-12T11:01:06.948Z,110
2016-04-12T11:02:06.795Z,105
2016-04-12T11:03:06.782Z,95
2016-04-12T11:04:06.784Z,90
2016-04-12T11:05:06.709Z,95
2016-04-12T11:06:06.696Z,100
2016-04-12T11:07:06.714Z,115
2016-04-12T11:08:06.686Z,115
2016-04-12T11:09:06.658Z,110
2016-04-12T11:10:06.660Z,115
2016-04-12T11:11:06.631Z,125
2016-04-12T11:12:06.618Z,100
2016-04-12T11:13:06.605Z,90
2016-04-12T11:14:06.593Z,95
2016-04-12T11:15:06.580Z,100
2016-04-12T11:16:06.567Z,110
2016-04-12T11:17:06.538Z,105
2016-04-12T11:18:06.556Z,105
2016-04-12T11:19:06.481Z,135
2016-04-12T11:20:06.514Z,170
2016-04-12T11:21:06.502Z,180
2016-04-12T11:22:06.489Z,180
2016-04-12T11:23:06.477Z,195
2016-04-12T11:24:06.448Z,210
2016-04-12T11:25:06.482Z,235
2016-04-12T11:26:06.438Z,395
2016-04-12T11:27:06.408Z,2000
2016-04-12T11:28:06.411Z,2080
2016-04-12T11:29:06.399Z,2195
2016-04-12T11:30:06.386Z,560
2016-04-12T11:31:06.358Z,1080
2016-04-12T11:32:06.359Z,2415
2016-04-12T11:33:06.332Z,2425
2016-04-12T11:34:06.491Z,2440
2016-04-12T11:35:06.321Z,2425
2016-04-12T11:36:06.293Z,2500
2016-04-12T11:37:06.279Z,2490
2016-04-12T11:38:06.298Z,2470
2016-04-12T11:39:06.269Z,2530
2016-04-12T11:40:06.303Z,2500
2016-04-12T11:41:06.634Z,2500
2016-04-12T11:42:06.542Z,2510
2016-04-12T11:43:06.280Z,2510
2016-04-12T11:44:06.237Z,2400
2016-04-12T11:45:06.239Z,2465
2016-04-12T11:46:06.241Z,2455
2016-04-12T11:47:06.244Z,2475
2016-04-12T11:48:06.231Z,2440
2016-04-12T11:49:06.187Z,2500
2016-04-12T11:50:06.220Z,2365
2016-04-12T11:51:08.598Z,2370
2016-04-12T11:52:06.225Z,2390
2016-04-12T11:53:06.197Z,2380
2016-04-12T11:54:06.200Z,2325
2016-04-12T11:55:06.219Z,2380
2016-04-12T11:56:06.221Z,2425
2016-04-12T11:57:06.333Z,2205
2016-04-12T11:58:06.242Z,1900
2016-04-12T11:59:06.230Z,1950
2016-04-12T12:00:06.248Z,2215
2016-04-12T12:01:06.297Z,2240
2016-04-12T12:02:06.222Z,2330
2016-04-12T12:03:06.224Z,2350
2016-04-12T12:04:06.087Z,2340
2016-04-12T12:05:06.230Z,2315
2016-04-12T12:06:06.295Z,2365
2016-04-12T12:07:06.235Z,2365
2016-04-12T12:08:06.254Z,2285
2016-04-12T12:09:06.225Z,2370
2016-04-12T12:10:06.228Z,2330
2016-04-12T12:11:06.230Z,2370
2016-04-12T12:12:06.233Z,2350
2016-04-12T12:13:06.096Z,2355
2016-04-12T12:14:06.223Z,2420
2016-04-12T12:15:06.241Z,2380
2016-04-12T12:16:06.244Z,2310
2016-04-12T12:17:06.247Z,2300
2016-04-12T12:18:06.218Z,2365
2016-04-12T12:19:06.378Z,2365
2016-04-12T12:20:06.239Z,2290
2016-04-12T12:21:06.226Z,2415
2016-04-12T12:22:06.229Z,2385
2016-04-12T12:23:06.091Z,2315
2016-04-12T12:24:06.234Z,2345
2016-04-12T12:25:06.237Z,2400
2016-04-12T12:26:06.255Z,2315
2016-04-12T12:27:06.242Z,2310
2016-04-12T12:28:06.245Z,2330
2016-04-12T12:29:06.247Z,2425
2016-04-12T12:30:06.250Z,2365
2016-04-12T12:31:06.253Z,2360
2016-04-12T12:32:06.271Z,2345
2016-04-12T12:33:06.243Z,2465
2016-04-12T12:34:06.371Z,2365
2016-04-12T12:35:06.248Z,2275
2016-04-12T12:36:06.251Z,2385
2016-04-12T12:37:06.285Z,2430
2016-04-12T12:38:06.257Z,2330
2016-04-12T12:39:06.259Z,2390
2016-04-12T12:40:06.434Z,2355
2016-04-12T12:41:06.545Z,2315
2016-04-12T12:42:06.314Z,2315
2016-04-12T12:43:06.301Z,2415
2016-04-12T12:44:06.273Z,2555
2016-04-12T12:45:06.291Z,335
2016-04-12T12:46:06.278Z,2405
2016-04-12T12:47:06.483Z,2455
2016-04-12T12:48:06.283Z,2410
2016-04-12T12:49:06.145Z,2310
2016-04-12T12:50:06.288Z,2510
2016-04-12T12:51:06.276Z,2475
2016-04-12T12:52:06.294Z,2405
2016-04-12T12:53:06.264Z,2340
2016-04-12T12:54:06.314Z,2445
2016-04-12T12:55:06.302Z,2480
2016-04-12T12:56:06.305Z,2495
2016-04-12T12:57:06.291Z,2450
2016-04-12T12:58:06.341Z,2430
2016-04-12T12:59:06.344Z,2440
2016-04-12T13:00:06.362Z,2385
2016-04-12T13:01:06.318Z,2360
2016-04-12T13:02:06.321Z,2460
2016-04-12T13:03:06.291Z,2495
2016-04-12T13:04:06.341Z,2495
2016-04-12T13:05:06.329Z,2415
2016-04-12T13:06:06.331Z,2480
2016-04-12T13:07:06.318Z,2560
2016-04-12T13:08:06.337Z,2460
2016-04-12T13:09:06.373Z,2570
2016-04-12T13:10:12.002Z,2645
2016-04-12T13:11:16.113Z,2855
2016-04-12T13:12:15.601Z,3000
2016-04-12T13:13:15.057Z,2725
2016-04-12T13:14:15.402Z,2515
2016-04-12T13:15:06.359Z,2335
2016-04-12T13:16:06.345Z,2355
2016-04-12T13:17:06.427Z,645
2016-04-12T13:18:06.398Z,2500
2016-04-12T13:19:06.401Z,1935
2016-04-12T13:20:06.341Z,2460
2016-04-12T13:21:06.407Z,2420
2016-04-12T13:22:06.362Z,2395
2016-04-12T13:23:06.348Z,2395
2016-04-12T13:24:06.368Z,2385
2016-04-12T13:25:06.401Z,1735
2016-04-12T13:26:06.373Z,2455
2016-04-12T13:27:06.375Z,2435
2016-04-12T13:28:06.378Z,2280
2016-04-12T13:29:06.224Z,445
2016-04-12T13:30:07.275Z,2345
2016-04-12T13:31:06.370Z,610
2016-04-12T13:32:06.420Z,2425
2016-04-12T13:33:06.360Z,2335
2016-04-12T13:34:06.410Z,2370
2016-04-12T13:35:06.380Z,2320
2016-04-12T13:36:06.384Z,2380
2016-04-12T13:37:06.386Z,2350
2016-04-12T13:38:06.421Z,2335
2016-04-12T13:39:06.376Z,2360
2016-04-12T13:40:06.394Z,2325
2016-04-12T13:41:06.397Z,2195
2016-04-12T13:42:06.446Z,2235
2016-04-12T13:43:08.136Z,2190
2016-04-12T13:44:05.472Z,2165
2016-04-12T13:45:06.281Z,2030
2016-04-12T13:46:06.238Z,2035
2016-04-12T13:47:13.391Z,2020
2016-04-12T13:48:06.409Z,2025
2016-04-12T13:49:06.428Z,2135
2016-04-12T13:50:06.399Z,1830
2016-04-12T13:51:06.402Z,2380
2016-04-12T13:52:06.405Z,2375
2016-04-12T13:53:06.407Z,2400
2016-04-12T13:54:06.457Z,2460
2016-04-12T13:55:06.444Z,1860
2016-04-12T13:56:06.431Z,775
2016-04-12T13:57:06.434Z,2345
2016-04-12T13:58:06.420Z,2510
2016-04-12T13:59:06.423Z,2190
2016-04-12T14:00:06.410Z,2265
2016-04-12T14:01:06.413Z,2190
2016-04-12T14:02:06.447Z,605
2016-04-12T14:03:06.465Z,405
2016-04-12T14:04:06.406Z,2145
2016-04-12T14:05:06.393Z,2140
2016-04-12T14:06:06.412Z,2265
2016-04-12T14:07:06.397Z,2215
2016-04-12T14:08:06.416Z,2170
2016-04-12T14:09:06.419Z,2230
2016-04-12T14:10:06.406Z,2240
2016-04-12T14:11:06.425Z,2085
2016-04-12T14:12:06.459Z,2290
2016-04-12T14:13:06.461Z,2235
2016-04-12T14:14:06.401Z,2255
2016-04-12T14:15:06.419Z,2115
2016-04-12T14:16:06.406Z,2090
2016-04-12T14:17:06.424Z,960
2016-04-12T14:18:06.411Z,1860
2016-04-12T14:19:06.399Z,1260
2016-04-12T14:20:06.416Z,1785
2016-04-12T14:21:06.389Z,2160
2016-04-12T14:22:06.454Z,2105
2016-04-12T14:23:06.472Z,2125
2016-04-12T14:24:06.428Z,2065
2016-04-12T14:25:06.399Z,2085
2016-04-12T14:26:06.418Z,2025
2016-04-12T14:27:06.499Z,2055
2016-04-12T14:28:06.407Z,2100
2016-04-12T14:29:06.411Z,380
2016-04-12T14:30:06.413Z,2195
2016-04-12T14:31:06.432Z,1140
2016-04-12T14:32:06.404Z,1605
2016-04-12T14:33:06.437Z,295
2016-04-12T14:34:06.409Z,1280
2016-04-12T14:35:06.411Z,2045
2016-04-12T14:36:06.460Z,2025
2016-04-12T14:37:06.400Z,2025
2016-04-12T14:38:06.372Z,1420
2016-04-12T14:39:06.422Z,2195
2016-04-12T14:40:06.409Z,1080
2016-04-12T14:41:06.412Z,385
2016-04-12T14:42:06.383Z,760
2016-04-12T14:43:06.417Z,1960
2016-04-12T14:44:06.403Z,2110
2016-04-12T14:45:06.391Z,2030
2016-04-12T14:46:06.394Z,390
2016-04-12T14:47:06.380Z,580
2016-04-12T14:48:06.383Z,2230
2016-04-12T14:49:06.370Z,495
2016-04-12T14:50:06.372Z,2265
2016-04-12T14:51:06.375Z,360
2016-04-12T14:52:06.503Z,2130
2016-04-12T14:53:06.397Z,800
2016-04-12T14:54:06.602Z,1010
2016-04-12T14:55:08.230Z,2090
2016-04-12T14:56:06.357Z,525
2016-04-12T14:57:06.345Z,1945
2016-04-12T14:58:06.348Z,1280
2016-04-12T14:59:06.366Z,2025
2016-04-12T15:00:06.354Z,1945
2016-04-12T15:01:06.403Z,1880
2016-04-12T15:02:06.343Z,1775
2016-04-12T15:03:06.362Z,1890
2016-04-12T15:04:06.348Z,510
2016-04-12T15:05:06.351Z,1150
2016-04-12T15:06:06.323Z,1715
2016-04-12T15:07:06.325Z,1900
2016-04-12T15:08:06.312Z,1805
2016-04-12T15:09:06.345Z,1625
2016-04-12T15:10:06.301Z,1665
2016-04-12T15:11:06.336Z,185
2016-04-12T15:12:06.292Z,1680
2016-04-12T15:13:06.342Z,1615
2016-04-12T15:14:06.312Z,1645
2016-04-12T15:15:06.300Z,1425
2016-04-12T15:16:06.317Z,1375
2016-04-12T15:17:06.336Z,1325
2016-04-12T15:18:06.323Z,1240
2016-04-12T15:19:06.279Z,1200
2016-04-12T15:20:06.282Z,1130
2016-04-12T15:21:06.284Z,1065
2016-04-12T15:22:06.287Z,965
2016-04-12T15:23:06.336Z,925
2016-04-12T15:24:06.261Z,320
2016-04-12T15:25:06.264Z,850
2016-04-12T15:26:06.266Z,835
2016-04-12T15:27:06.082Z,875
2016-04-12T15:28:06.240Z,885
2016-04-12T15:29:06.243Z,1195
2016-04-12T15:30:06.230Z,2075
2016-04-12T15:31:06.249Z,1855
2016-04-12T15:32:06.252Z,1505
2016-04-12T15:33:06.239Z,820
2016-04-12T15:34:06.226Z,320
2016-04-12T15:35:06.323Z,330
2016-04-12T15:36:06.231Z,295
2016-04-12T15:37:06.218Z,280
2016-04-12T15:38:06.268Z,285
2016-04-12T15:39:06.239Z,185
2016-04-12T15:40:06.211Z,355
2016-04-12T15:41:06.541Z,325
2016-04-12T15:42:06.247Z,230
2016-04-12T15:43:06.234Z,220
2016-04-12T15:44:06.190Z,220
2016-04-12T15:45:06.193Z,225
2016-04-12T15:46:06.164Z,205
2016-04-12T15:47:06.198Z,215
2016-04-12T15:48:06.185Z,205
2016-04-12T15:49:06.172Z,210
2016-04-12T15:50:06.175Z,200
2016-04-12T15:51:06.146Z,250
2016-04-12T15:52:06.118Z,190
2016-04-12T15:53:06.135Z,190
2016-04-12T15:54:06.311Z,195
2016-04-12T15:55:06.157Z,190
2016-04-12T15:56:06.129Z,195
2016-04-12T15:57:06.132Z,180
2016-04-12T15:58:06.103Z,175
2016-04-12T15:59:06.152Z,180
2016-04-12T16:00:06.140Z,175
2016-04-12T16:01:06.079Z,175
2016-04-12T16:02:06.051Z,175
2016-04-12T16:03:06.069Z,175
2016-04-12T16:04:05.963Z,175
2016-04-12T16:05:06.591Z,175
2016-04-12T16:06:09.031Z,170
2016-04-12T16:07:06.018Z,175
2016-04-12T16:08:05.989Z,175
2016-04-12T16:09:08.976Z,175
2016-04-12T16:10:08.807Z,170
2016-04-12T16:11:06.059Z,170
2016-04-12T16:12:06.265Z,170
2016-04-12T16:13:05.955Z,165
2016-04-12T16:14:05.958Z,165
2016-04-12T16:15:06.023Z,165
2016-04-12T16:16:05.886Z,160
2016-04-12T16:17:05.920Z,160
2016-04-12T16:18:05.938Z,160
2016-04-12T16:19:05.862Z,160
2016-04-12T16:20:06.005Z,155
2016-04-12T16:21:05.852Z,155
2016-04-12T16:22:05.854Z,155
2016-04-12T16:23:05.841Z,155
2016-04-12T16:24:05.875Z,155
2016-04-12T16:25:05.815Z,160
2016-04-12T16:26:05.803Z,155
2016-04-12T16:27:05.805Z,155
2016-04-12T16:28:05.840Z,165
2016-04-12T16:29:05.749Z,155
2016-04-12T16:30:05.767Z,150
2016-04-12T16:31:05.738Z,150
2016-04-12T16:32:05.710Z,150
2016-04-12T16:33:05.696Z,155
2016-04-12T16:34:05.715Z,165
2016-04-12T16:35:06.280Z,155
2016-04-12T16:36:05.690Z,155
2016-04-12T16:37:05.677Z,155
2016-04-12T16:38:05.648Z,155
2016-04-12T16:39:05.682Z,110
2016-04-12T16:40:05.637Z,115
2016-04-12T16:41:05.812Z,130
2016-04-12T16:42:05.970Z,145
2016-04-12T16:43:05.645Z,155
2016-04-12T16:44:05.742Z,160
2016-04-12T16:45:05.947Z,160
2016-04-12T16:46:05.684Z,165
2016-04-12T16:47:05.562Z,170
2016-04-12T16:48:05.519Z,165
2016-04-12T16:49:05.420Z,160
2016-04-12T16:50:06.182Z,165
2016-04-12T16:51:05.616Z,230
2016-04-12T16:52:05.644Z,180
2016-04-12T16:53:05.687Z,170
2016-04-12T16:54:05.642Z,160
2016-04-12T16:55:05.675Z,170
2016-04-12T16:56:05.646Z,165
2016-04-12T16:57:05.679Z,210
2016-04-12T16:58:05.774Z,160
2016-04-12T16:59:05.673Z,110
2016-04-12T17:00:05.666Z,145
2016-04-12T17:01:05.658Z,95
2016-04-12T17:02:05.682Z,85
2016-04-12T17:03:05.737Z,85
2016-04-12T17:04:05.742Z,90
2016-04-12T17:05:05.699Z,90
2016-04-12T17:06:05.657Z,95
2016-04-12T17:07:05.865Z,110
2016-04-12T17:08:05.792Z,130
2016-04-12T17:09:06.013Z,150
2016-04-12T17:10:08.673Z,175
2016-04-12T17:11:08.816Z,200
2016-04-12T17:12:07.569Z,195
2016-04-12T17:13:07.542Z,165
2016-04-12T17:14:08.467Z,135
2016-04-12T17:15:07.891Z,140
2016-04-12T17:16:10.644Z,150
2016-04-12T17:17:05.474Z,145
2016-04-12T17:18:05.446Z,145
2016-04-12T17:19:05.449Z,175
2016-04-12T17:20:05.560Z,165
2016-04-12T17:21:05.423Z,125
2016-04-12T17:22:05.426Z,95
2016-04-12T17:23:05.382Z,85
2016-04-12T17:24:05.369Z,85
2016-04-12T17:25:05.371Z,85
2016-04-12T17:26:05.358Z,95
2016-04-12T17:27:05.346Z,80
2016-04-12T17:28:05.332Z,70
2016-04-12T17:29:05.304Z,70
2016-04-12T17:30:05.337Z,70
2016-04-12T17:31:05.278Z,75
2016-04-12T17:32:05.281Z,80
2016-04-12T17:33:05.284Z,80
2016-04-12T17:34:05.270Z,105
2016-04-12T17:35:05.132Z,115
2016-04-12T17:36:05.229Z,100
2016-04-12T17:37:05.263Z,95
2016-04-12T17:38:05.187Z,85
2016-04-12T17:39:05.190Z,60
2016-04-12T17:40:05.177Z,45
2016-04-12T17:41:05.180Z,40
2016-04-12T17:42:05.151Z,30
2016-04-12T17:43:05.122Z,30
2016-04-12T17:44:05.125Z,25
2016-04-12T17:45:05.113Z,20
2016-04-12T17:46:05.099Z,20
2016-04-12T17:47:05.102Z,20
2016-04-12T17:48:05.120Z,25
2016-04-12T17:49:05.061Z,25
2016-04-12T17:50:05.064Z,30
2016-04-12T17:51:05.019Z,30
2016-04-12T17:52:05.022Z,35
2016-04-12T17:53:05.024Z,35
2016-04-12T17:54:05.183Z,40
2016-04-12T17:55:05.030Z,55
2016-04-12T17:56:04.985Z,60
2016-04-12T17:57:04.988Z,60
2016-04-12T17:58:04.975Z,40
2016-04-12T17:59:04.931Z,45
2016-04-12T18:00:04.919Z,35
2016-04-12T18:01:04.921Z,20
2016-04-12T18:02:04.892Z,20
2016-04-12T18:03:04.864Z,25
2016-04-12T18:04:04.835Z,20
2016-04-12T18:05:04.823Z,30
2016-04-12T18:06:07.029Z,40
2016-04-12T18:07:04.812Z,45
2016-04-12T18:08:04.814Z,45
2016-04-12T18:09:04.802Z,50
2016-04-12T18:10:04.758Z,50
2016-04-12T18:11:04.728Z,55
2016-04-12T18:12:04.716Z,55
2016-04-12T18:13:04.719Z,50
2016-04-12T18:14:04.706Z,45
2016-04-12T18:15:04.678Z,40
2016-04-12T18:16:04.680Z,35
2016-04-12T18:17:04.652Z,35
2016-04-12T18:18:04.654Z,35
2016-04-12T18:19:04.625Z,30
2016-04-12T18:20:04.597Z,25
2016-04-12T18:21:04.599Z,0
